Wetterdaten: aktuell Dienstag, 25.04.2017 02:40
Datum Zeit Temp. A. Feuchte A. Luftdruck Regen Wind Richtung Richtung Taupunkt Windchill Windben
25.04.2017 02:40 3,2 C 88 % 1002 hPa 0,5 l/m 5,8 km/h (2 Bft) O-NO 67 1,4 C 3,2 C 6,5 km/h (2 Bft)
25.04.2017 01:40 3,8 C 86 % 1002 hPa 1,0 l/m 7,2 km/h (2 Bft) O-NO 67 1,7 C 3,1 C 8,6 km/h (2 Bft)
25.04.2017 00:40 4,4 C 83 % 1003 hPa 1,5 l/m 1,8 km/h (1 Bft) O 90 1,8 C 4,4 C 6,5 km/h (2 Bft)
24.04.2017 23:40 5,6 C 83 % 1003 hPa 0,3 l/m 0,0 km/h (0 Bft) N-NW 337 2,9 C 5,6 C 2,2 km/h (1 Bft)
24.04.2017 22:40 6,0 C 85 % 1004 hPa 0,0 l/m 7,2 km/h (2 Bft) N 360 3,7 C 5,3 C 7,2 km/h (2 Bft)
24.04.2017 21:40 6,4 C 86 % 1005 hPa 0,3 l/m 7,2 km/h (2 Bft) N 360 4,2 C 5,7 C 7,2 km/h (2 Bft)
24.04.2017 20:40 6,7 C 84 % 1005 hPa 0,8 l/m 10,8 km/h (2 Bft) NW 315 4,2 C 3,4 C 13,3 km/h (3 Bft)
24.04.2017 19:40 7,5 C 86 % 1005 hPa 0,3 l/m 8,6 km/h (2 Bft) W-NW 292 5,3 C 5,8 C 15,5 km/h (3 Bft)
24.04.2017 18:40 8,0 C 86 % 1006 hPa 0,5 l/m 5,4 km/h (1 Bft) NW 315 5,8 C 8,0 C 6,5 km/h (2 Bft)
24.04.2017 17:40 10,6 C 79 % 1006 hPa 0,0 l/m 13,0 km/h (3 Bft) N 360 7,1 C 6,7 C 13,0 km/h (3 Bft)
24.04.2017 16:40 10,2 C 81 % 1006 hPa 0,3 l/m 8,6 km/h (2 Bft) W-NW 292 7,1 C 8,7 C 15,5 km/h (3 Bft)
24.04.2017 15:40 11,6 C 66 % 1006 hPa 0,0 l/m 18,7 km/h (3 Bft) W-NW 292 5,5 C 5,8 C 24,1 km/h (4 Bft)
24.04.2017 14:40 12,1 C 62 % 1006 hPa 0,0 l/m 16,6 km/h (3 Bft) W 270 5,0 C 7,1 C 31,0 km/h (5 Bft)
24.04.2017 13:40 11,4 C 65 % 1007 hPa 0,0 l/m 18,0 km/h (3 Bft) W-NW 292 5,1 C 5,7 C 22,0 km/h (4 Bft)
24.04.2017 12:40 11,2 C 62 % 1008 hPa 0,0 l/m 23,8 km/h (4 Bft) W 270 4,2 C 3,8 C 26,3 km/h (4 Bft)
24.04.2017 11:40 10,2 C 62 % 1008 hPa 0,0 l/m 27,7 km/h (4 Bft) W 270 3,3 C 1,4 C 33,1 km/h (5 Bft)
24.04.2017 10:40 8,5 C 64 % 1009 hPa 0,0 l/m 16,9 km/h (3 Bft) W-SW 247 2,1 C 2,5 C 26,3 km/h (4 Bft)
24.04.2017 09:40 6,7 C 71 % 1010 hPa 0,0 l/m 22,3 km/h (4 Bft) N 360 1,8 C -1,8 C 22,3 km/h (4 Bft)
24.04.2017 08:40 6,7 C 71 % 1011 hPa 0,0 l/m 22,3 km/h (4 Bft) N 360 1,8 C -1,8 C 22,3 km/h (4 Bft)
24.04.2017 07:40 6,6 C 71 % 1012 hPa 0,0 l/m 15,8 km/h (3 Bft) SW 225 1,7 C 0,6 C 19,8 km/h (3 Bft)
24.04.2017 06:40 5,8 C 71 % 1012 hPa 0,0 l/m 13,7 km/h (3 Bft) W-SW 247 1,0 C 0,7 C 19,8 km/h (3 Bft)
24.04.2017 05:40 5,2 C 75 % 1014 hPa 0,0 l/m 15,8 km/h (3 Bft) W 270 1,1 C -1,1 C 24,1 km/h (4 Bft)
24.04.2017 04:40 4,4 C 80 % 1015 hPa 0,0 l/m 13,3 km/h (3 Bft) W-SW 247 1,3 C -0,7 C 15,5 km/h (3 Bft)
24.04.2017 03:40 4,2 C 84 % 1016 hPa 0,0 l/m 10,1 km/h (2 Bft) N 360 1,7 C 1,1 C 10,1 km/h (2 Bft)
24.04.2017 03:00 4,2 C 84 % 1016 hPa 0,0 l/m 10,1 km/h (2 Bft) N 360 1,7 C 1,1 C 10,1 km/h (2 Bft)
_ Min-Zeit 02:40 12:00 01:30 - 23:40 - - 06:40 06:30 23:40
Minimum _ 3,2 C 61 % 1002 hPa - 0,0 km/h (0 Bft) - - 1,0 C -3,1 C 2,2 km/h (1 Bft)
_ Max-Zeit 14:30 02:30 03:00 00:40 15:20 - - 16:50 14:10 12:30
Maximum _ 12,3 C 88 % 1016 hPa 0,5 l/m 28,8 km/h
W (4 Bft)
- - 7,1 C 9,2 C 43,9 km/h
W-SW (6 Bft)
Durchschnitt _ 7,2 C 77 % 1008 hPa #5,4 l/m 13,4 km/h (3 Bft) N - 3,3 C 3,1 C 16,9 km/h (3 Bft)